Vernon, Colorado
Current Conditions -  °F | °C
As of 11:35 AM on Wednesday 26 Nov 2014 (Local Time) from K2V5 Reporting Station
Light Snow Light Snow  
Wind Chill: 28°   Ceiling: 2500
Heat Index: 33°   Visibility: 2.5mi
Dew Point: 29°   Wind: 6mph
Humidity: 87%   Direction: 340°NNW
Pressure: 30.27"   Gusts: NA
Location:  39.95°N, 102.32°W
Report Text: K2V5 261835Z AUTO 34005KT 2 1/2SM -SN SCT013 BKN025 OVC032 01/M01 A3027 RMK AO2 T00061014
Loading
Personal Weather Stations






























Interactive Weather Map New forecast layout! Learn more

10-Day Weather Forecast

Advertisements
Track Severe Weather on mobile